createdAt,value
2022-09-07T00:02:33.725Z,100418.56
2022-09-07T00:07:35.355Z,100418.44
2022-09-07T00:12:37.156Z,100417.22
2022-09-07T00:17:39.323Z,100409.44
2022-09-07T00:22:40.998Z,100404.28
2022-09-07T00:27:42.604Z,100393.00
2022-09-07T00:32:44.187Z,100396.34
2022-09-07T00:37:45.765Z,100394.66
2022-09-07T00:42:47.356Z,100372.31
2022-09-07T00:47:57.813Z,100374.66
2022-09-07T00:53:07.130Z,100394.19
2022-09-07T00:58:09.875Z,100394.22
2022-09-07T01:03:12.590Z,100390.31
2022-09-07T01:08:14.397Z,100380.44
2022-09-07T01:13:16.488Z,100383.28
2022-09-07T01:18:45.583Z,100377.88
2022-09-07T01:24:17.386Z,100375.47
2022-09-07T01:29:25.039Z,100382.06
2022-09-07T01:34:26.751Z,100381.31
2022-09-07T01:39:46.085Z,100373.59
2022-09-07T01:44:57.916Z,100369.03
2022-09-07T01:50:12.103Z,100354.72
2022-09-07T01:55:19.316Z,100359.84
2022-09-07T02:00:21.042Z,100355.16
2022-09-07T02:05:29.841Z,100357.03
2022-09-07T02:10:47.633Z,100356.44
2022-09-07T02:16:03.345Z,100364.31
2022-09-07T02:21:08.020Z,100354.28
2022-09-07T02:26:15.401Z,100366.75
2022-09-07T02:31:17.260Z,100367.22
2022-09-07T02:36:24.890Z,100359.06
2022-09-07T02:41:36.901Z,100346.16
2022-09-07T02:46:38.592Z,100347.03
2022-09-07T02:51:50.797Z,100346.22
2022-09-07T02:56:55.354Z,100355.34
2022-09-07T03:01:59.921Z,100344.75
2022-09-07T03:07:13.992Z,100347.06
2022-09-07T03:12:16.784Z,100344.06
2022-09-07T03:17:18.549Z,100357.34
2022-09-07T03:22:20.111Z,100343.63
2022-09-07T03:27:21.683Z,100352.50
2022-09-07T03:32:23.261Z,100346.47
2022-09-07T03:37:25.406Z,100339.63
2022-09-07T03:42:26.976Z,100334.19
2022-09-07T03:47:28.678Z,100339.63
2022-09-07T03:52:30.285Z,100336.34
2022-09-07T03:57:31.900Z,100328.47
2022-09-07T04:02:33.577Z,100322.75
2022-09-07T04:07:35.218Z,100315.91
2022-09-07T04:12:36.847Z,100333.63
2022-09-07T04:17:38.484Z,100327.31
2022-09-07T04:22:40.046Z,100327.75
2022-09-07T04:27:41.682Z,100321.38
2022-09-07T04:32:43.298Z,100313.41
2022-09-07T04:37:45.381Z,100321.25
2022-09-07T04:42:47.052Z,100313.41
2022-09-07T04:47:49.300Z,100316.56
2022-09-07T04:52:50.868Z,100315.66
2022-09-07T04:57:52.479Z,100315.81
2022-09-07T05:02:54.086Z,100314.41
2022-09-07T05:07:55.688Z,100327.81
2022-09-07T05:12:57.631Z,100325.59
2022-09-07T05:17:59.191Z,100314.16
2022-09-07T05:23:00.812Z,100310.16
2022-09-07T05:28:02.643Z,100322.16
2022-09-07T05:33:05.274Z,100322.19
2022-09-07T05:38:06.915Z,100312.19
2022-09-07T05:43:10.452Z,100319.19
2022-09-07T05:48:12.027Z,100333.31
2022-09-07T05:53:13.873Z,100323.47
2022-09-07T05:58:15.975Z,100327.72
2022-09-07T06:03:17.734Z,100319.25
2022-09-07T06:08:19.410Z,100322.09
2022-09-07T06:13:21.002Z,100324.69
2022-09-07T06:18:22.610Z,100335.78
2022-09-07T06:23:24.193Z,100332.59
2022-09-07T06:28:40.006Z,100329.44
2022-09-07T06:33:43.479Z,100339.69
2022-09-07T06:38:46.993Z,100335.34
2022-09-07T06:43:48.876Z,100328.94
2022-09-07T06:48:56.830Z,100322.53
2022-09-07T06:59:21.515Z,100328.22
2022-09-07T07:04:23.191Z,100327.47
2022-09-07T07:09:24.855Z,100341.19
2022-09-07T07:14:28.127Z,100326.69
2022-09-07T07:19:30.599Z,100321.22
2022-09-07T07:24:32.207Z,100312.50
2022-09-07T07:29:34.054Z,100307.03
2022-09-07T07:34:35.677Z,100308.56
2022-09-07T07:50:35.739Z,100315.59
2022-09-07T07:55:45.087Z,100297.78
2022-09-07T08:00:55.825Z,100301.91
2022-09-07T08:06:05.019Z,100290.38
2022-09-07T08:11:09.133Z,100303.22
2022-09-07T08:16:11.897Z,100313.09
2022-09-07T08:21:15.525Z,100309.16
2022-09-07T08:26:17.047Z,100304.66
2022-09-07T08:31:18.709Z,100308.38
2022-09-07T08:36:21.154Z,100305.19
2022-09-07T08:41:52.383Z,100297.91
2022-09-07T08:46:58.608Z,100296.84
2022-09-07T08:52:14.259Z,100275.78
2022-09-07T08:57:23.247Z,100267.41
2022-09-07T09:02:27.828Z,100269.84
2022-09-07T09:07:50.108Z,100264.03
2022-09-07T09:13:09.748Z,100263.03
2022-09-07T09:18:25.916Z,100265.47
2022-09-07T09:23:34.249Z,100265.09
2022-09-07T09:28:36.008Z,100262.34
2022-09-07T09:33:37.922Z,100255.34
2022-09-07T09:38:40.826Z,100255.34
2022-09-07T09:43:55.111Z,100245.22
2022-09-07T09:49:05.615Z,100233.91
2022-09-07T09:54:27.463Z,100234.84
2022-09-07T10:04:53.056Z,100223.44
2022-09-07T10:09:56.427Z,100216.94
2022-09-07T10:14:59.788Z,100224.25
2022-09-07T10:20:04.118Z,100218.28
2022-09-07T10:25:30.683Z,100215.25
2022-09-07T10:30:41.852Z,100219.19
2022-09-07T10:36:01.630Z,100208.06
2022-09-07T10:41:07.404Z,100208.28
2022-09-07T10:52:10.028Z,100204.16
2022-09-07T10:57:40.473Z,100200.47
2022-09-07T11:08:21.368Z,100186.59
2022-09-07T11:13:30.123Z,100179.41
2022-09-07T11:24:37.652Z,100187.94
2022-09-07T11:29:50.822Z,100180.50
2022-09-07T11:34:58.754Z,100180.97
2022-09-07T11:40:24.684Z,100163.19
2022-09-07T11:45:46.562Z,100158.81
2022-09-07T11:50:57.664Z,100156.84
2022-09-07T11:56:07.380Z,100158.59
2022-09-07T12:01:39.590Z,100158.81
2022-09-07T12:07:04.484Z,100164.53
2022-09-07T12:12:17.872Z,100157.94
2022-09-07T12:17:47.327Z,100149.00
2022-09-07T12:23:05.694Z,100149.28
2022-09-07T12:28:36.180Z,100142.75
2022-09-07T12:33:39.841Z,100134.09
2022-09-07T12:39:06.250Z,100125.59
2022-09-07T12:44:15.607Z,100115.84
2022-09-07T12:49:23.235Z,100107.81
2022-09-07T12:54:30.895Z,100113.09
2022-09-07T12:59:35.295Z,100099.75
2022-09-07T13:05:03.901Z,100104.00
2022-09-07T13:10:23.592Z,100093.38
2022-09-07T13:15:44.895Z,100084.91
2022-09-07T13:21:09.313Z,100084.88
2022-09-07T13:26:32.414Z,100081.91
2022-09-07T13:32:15.848Z,100072.56
2022-09-07T13:37:27.938Z,100063.88
2022-09-07T13:42:33.135Z,100073.84
2022-09-07T13:47:37.458Z,100059.41
2022-09-07T13:53:23.374Z,100065.97
2022-09-07T13:58:27.595Z,100062.81
2022-09-07T14:03:50.150Z,100063.66
2022-09-07T14:08:57.550Z,100047.06
2022-09-07T14:14:27.765Z,100051.34
2022-09-07T14:19:39.403Z,100054.72
2022-09-07T14:24:50.015Z,100033.91
2022-09-07T14:29:52.112Z,100040.28
2022-09-07T14:34:54.009Z,100040.25
2022-09-07T14:39:56.247Z,100027.56
2022-09-07T14:45:22.835Z,100024.97
2022-09-07T14:50:32.655Z,100017.38
2022-09-07T14:55:44.674Z,100008.47
2022-09-07T15:01:37.260Z,100000.41
2022-09-07T15:07:00.955Z,100001.28
2022-09-07T15:11:36.227Z,100009.97
2022-09-07T15:16:43.846Z,99997.06
2022-09-07T15:21:45.568Z,100006.78
2022-09-07T15:27:04.498Z,99993.66
2022-09-07T15:32:09.936Z,99985.59
2022-09-07T15:47:56.394Z,99973.69
2022-09-07T15:53:00.986Z,99970.28
2022-09-07T15:58:11.470Z,99973.28
2022-09-07T16:03:13.655Z,99973.66
2022-09-07T16:13:37.362Z,99985.28
2022-09-07T16:18:39.993Z,99980.78
2022-09-07T16:23:45.237Z,99982.88
2022-09-07T16:28:48.789Z,99967.19
2022-09-07T16:33:50.563Z,99959.31
2022-09-07T16:38:57.232Z,99961.63
2022-09-07T16:43:59.573Z,99960.53
2022-09-07T16:49:01.859Z,99970.47
2022-09-07T16:54:03.737Z,99951.53
2022-09-07T16:59:06.681Z,99950.03
2022-09-07T17:04:11.289Z,99945.97
2022-09-07T17:09:14.519Z,99945.69
2022-09-07T17:14:16.111Z,99954.94
2022-09-07T17:19:33.362Z,99959.94
2022-09-07T17:24:34.983Z,99956.31
2022-09-07T17:29:37.833Z,99963.91
2022-09-07T17:34:39.405Z,99959.88
2022-09-07T17:39:41.354Z,99962.63
2022-09-07T17:44:42.985Z,99959.59
2022-09-07T17:49:45.058Z,99951.75
2022-09-07T17:54:47.282Z,99957.53
2022-09-07T18:05:11.657Z,99981.03
2022-09-07T18:10:13.498Z,99981.88
2022-09-07T18:15:16.116Z,99983.50
2022-09-07T18:20:19.021Z,99984.75
2022-09-07T18:25:20.672Z,99985.53
2022-09-07T18:30:22.246Z,99979.59
2022-09-07T18:35:24.428Z,99977.56
2022-09-07T18:40:25.967Z,99984.84
2022-09-07T18:45:28.028Z,99981.78
2022-09-07T18:50:29.759Z,99985.66
2022-09-07T18:55:32.316Z,99987.91
2022-09-07T19:00:34.511Z,99984.06
2022-09-07T19:05:52.860Z,99975.09
2022-09-07T19:10:54.691Z,99974.53
2022-09-07T19:16:14.649Z,99975.69
2022-09-07T19:21:21.617Z,99968.88
2022-09-07T19:26:24.901Z,99963.78
2022-09-07T19:31:28.249Z,99955.28
2022-09-07T19:36:32.401Z,99950.94
2022-09-07T19:41:34.818Z,99943.47
2022-09-07T19:46:36.527Z,99938.75
2022-09-07T19:51:39.505Z,99938.81
2022-09-07T19:56:42.856Z,99932.38
2022-09-07T20:01:46.810Z,99942.31
2022-09-07T20:06:50.300Z,99937.94
2022-09-07T20:11:52.056Z,99934.25
2022-09-07T20:16:53.607Z,99930.44
2022-09-07T20:21:55.864Z,99917.34
2022-09-07T20:26:57.436Z,99924.88
2022-09-07T20:32:01.237Z,99931.84
2022-09-07T20:37:02.884Z,99923.63
2022-09-07T20:42:06.725Z,99924.38
2022-09-07T20:47:08.317Z,99928.88
2022-09-07T20:52:09.887Z,99919.03
2022-09-07T20:57:11.452Z,99919.78
2022-09-07T21:02:13.041Z,99920.47
2022-09-07T21:07:14.663Z,99916.09
2022-09-07T21:12:16.428Z,99907.59
2022-09-07T21:17:17.986Z,99917.00
2022-09-07T21:22:19.632Z,99925.09
2022-09-07T21:27:21.197Z,99921.31
2022-09-07T21:32:22.721Z,99927.50
2022-09-07T21:37:24.289Z,99932.97
2022-09-07T21:42:25.806Z,99942.91
2022-09-07T21:47:27.341Z,99934.03
2022-09-07T21:52:28.890Z,99929.28
2022-09-07T21:57:30.496Z,99945.56
2022-09-07T22:02:32.041Z,99953.28
2022-09-07T22:07:34.536Z,99943.06
2022-09-07T22:12:36.075Z,99939.28
2022-09-07T22:17:37.669Z,99933.13
2022-09-07T22:22:39.222Z,99925.28
2022-09-07T22:27:40.892Z,99933.50
2022-09-07T22:32:49.763Z,99928.94
2022-09-07T22:37:51.298Z,99914.81
2022-09-07T22:42:52.827Z,99904.09
2022-09-07T22:47:54.364Z,99892.50
2022-09-07T22:52:55.892Z,99887.56
2022-09-07T22:57:57.432Z,99880.44
2022-09-07T23:02:59.027Z,99883.34
2022-09-07T23:08:00.589Z,99871.19
2022-09-07T23:13:05.288Z,99863.69
2022-09-07T23:18:06.827Z,99866.50
2022-09-07T23:23:09.238Z,99869.22
2022-09-07T23:28:12.419Z,99858.94
2022-09-07T23:33:14.408Z,99851.75
2022-09-07T23:38:16.082Z,99845.25
2022-09-07T23:43:17.772Z,99839.81
2022-09-07T23:48:20.420Z,99842.56
2022-09-07T23:53:22.438Z,99838.47
2022-09-07T23:58:24.547Z,99837.16
